createdAt,value
2019-02-05T00:00:04.559Z,16.87
2019-02-05T00:02:35.147Z,16.87
2019-02-05T00:05:06.361Z,16.53
2019-02-05T00:07:36.813Z,17.30
2019-02-05T00:10:07.268Z,16.53
2019-02-05T00:12:37.631Z,14.83
2019-02-05T00:15:08.538Z,15.63
2019-02-05T00:17:39.289Z,16.23
2019-02-05T00:20:10.243Z,14.70
2019-02-05T00:22:40.820Z,15.47
2019-02-05T00:25:11.271Z,14.97
2019-02-05T00:27:41.739Z,14.67
2019-02-05T00:30:12.105Z,18.57
2019-02-05T00:32:42.822Z,16.20
2019-02-05T00:35:13.429Z,15.83
2019-02-05T00:37:44.056Z,12.93
2019-02-05T00:40:14.443Z,15.97
2019-02-05T00:42:45.065Z,17.70
2019-02-05T00:45:15.895Z,19.70
2019-02-05T00:47:46.460Z,17.97
2019-02-05T00:50:17.298Z,15.83
2019-02-05T00:52:47.272Z,21.70
2019-02-05T00:55:17.599Z,19.77
2019-02-05T00:57:48.076Z,20.73
2019-02-05T01:00:25.241Z,18.90
2019-02-05T01:02:55.509Z,21.27
2019-02-05T01:05:26.107Z,16.50
2019-02-05T01:07:56.810Z,20.40
2019-02-05T01:10:27.987Z,15.00
2019-02-05T01:12:58.510Z,20.73
2019-02-05T01:15:28.845Z,19.50
2019-02-05T01:18:18.167Z,18.00
2019-02-05T01:20:48.089Z,20.13
2019-02-05T01:23:18.459Z,20.67
2019-02-05T01:25:48.985Z,20.27
2019-02-05T01:28:19.683Z,21.20
2019-02-05T01:30:49.855Z,21.47
2019-02-05T01:33:20.499Z,18.27
2019-02-05T01:35:51.478Z,22.70
2019-02-05T01:38:22.068Z,19.70
2019-02-05T01:40:51.921Z,18.90
2019-02-05T01:43:22.555Z,23.00
2019-02-05T01:45:53.207Z,21.10
2019-02-05T01:48:23.669Z,21.73
2019-02-05T01:50:53.899Z,22.63
2019-02-05T01:53:24.198Z,21.70
2019-02-05T01:55:54.457Z,20.17
2019-02-05T01:58:24.687Z,21.30
2019-02-05T02:00:55.266Z,18.33
2019-02-05T02:03:25.935Z,22.67
2019-02-05T02:05:56.426Z,21.07
2019-02-05T02:08:26.959Z,22.03
2019-02-05T02:10:57.599Z,22.77
2019-02-05T02:13:28.146Z,19.80
2019-02-05T02:15:58.406Z,20.17
2019-02-05T02:18:28.995Z,21.40
2019-02-05T02:20:59.309Z,20.83
2019-02-05T02:23:29.791Z,21.03
2019-02-05T02:26:00.289Z,23.40
2019-02-05T02:28:30.499Z,21.97
2019-02-05T02:31:01.563Z,18.87
2019-02-05T02:33:32.219Z,21.07
2019-02-05T02:36:02.663Z,20.17
2019-02-05T02:38:33.041Z,20.20
2019-02-05T02:41:03.681Z,19.10
2019-02-05T02:43:33.999Z,22.23
2019-02-05T02:46:04.210Z,20.20
2019-02-05T02:48:34.605Z,21.27
2019-02-05T02:51:05.141Z,22.17
2019-02-05T02:53:35.509Z,20.67
2019-02-05T02:56:06.367Z,20.70
2019-02-05T02:58:36.729Z,22.03
2019-02-05T03:01:07.254Z,18.93
2019-02-05T03:03:37.842Z,21.17
2019-02-05T03:06:27.103Z,20.73
2019-02-05T03:08:58.191Z,19.57
2019-02-05T03:11:28.710Z,19.07
2019-02-05T03:13:58.941Z,18.40
2019-02-05T03:16:29.461Z,18.70
2019-02-05T03:19:00.020Z,17.87
2019-02-05T03:21:30.662Z,20.90
2019-02-05T03:24:00.927Z,19.30
2019-02-05T03:26:31.268Z,21.67
2019-02-05T03:29:01.943Z,21.27
2019-02-05T03:31:32.625Z,20.00
2019-02-05T03:34:03.201Z,21.23
2019-02-05T03:36:52.520Z,21.90
2019-02-05T03:39:22.800Z,21.30
2019-02-05T03:41:53.482Z,20.00
2019-02-05T03:44:23.969Z,20.77
2019-02-05T03:46:54.552Z,20.83
2019-02-05T03:49:25.130Z,21.50
2019-02-05T03:52:11.564Z,19.67
2019-02-05T03:55:05.444Z,21.17
2019-02-05T03:57:51.805Z,21.77
2019-02-05T04:00:56.139Z,22.10
2019-02-05T04:03:48.367Z,14.97
2019-02-05T04:06:58.803Z,20.27
2019-02-05T04:10:24.793Z,21.03
2019-02-05T04:13:31.359Z,20.57
2019-02-05T04:16:42.911Z,18.53
2019-02-05T04:20:12.188Z,20.27
2019-02-05T04:23:37.157Z,20.73
2019-02-05T04:26:38.977Z,20.27
2019-02-05T04:29:33.271Z,21.20
2019-02-05T04:32:32.581Z,19.47
2019-02-05T04:35:28.571Z,20.27
2019-02-05T04:38:33.844Z,17.90
2019-02-05T04:41:21.431Z,18.40
2019-02-05T04:44:16.202Z,20.07
2019-02-05T04:47:10.993Z,20.20
2019-02-05T04:50:08.281Z,19.37
2019-02-05T04:53:37.169Z,15.90
2019-02-05T04:56:32.406Z,19.93
2019-02-05T04:59:51.839Z,19.93
2019-02-05T05:03:11.077Z,21.37
2019-02-05T05:06:10.026Z,24.97
2019-02-05T05:09:05.353Z,22.00
2019-02-05T05:11:35.787Z,20.83
2019-02-05T05:14:06.439Z,20.63
2019-02-05T05:16:36.969Z,22.40
2019-02-05T05:19:07.486Z,23.13
2019-02-05T05:21:38.261Z,23.70
2019-02-05T05:24:08.785Z,20.97
2019-02-05T05:26:39.558Z,21.27
2019-02-05T05:29:10.161Z,18.13
2019-02-05T05:31:40.855Z,19.50
2019-02-05T05:34:11.647Z,17.70
2019-02-05T05:36:50.007Z,20.27
2019-02-05T05:39:21.056Z,20.47
2019-02-05T05:41:51.630Z,21.23
2019-02-05T05:44:22.305Z,19.50
2019-02-05T05:46:53.047Z,20.67
2019-02-05T05:49:23.930Z,19.97
2019-02-05T05:51:54.475Z,15.60
2019-02-05T05:54:25.065Z,19.37
2019-02-05T05:56:55.380Z,21.47
2019-02-05T05:59:26.018Z,20.80
2019-02-05T06:01:56.347Z,19.20
2019-02-05T06:04:26.657Z,20.70
2019-02-05T06:06:57.329Z,19.90
2019-02-05T06:09:27.895Z,19.93
2019-02-05T06:12:00.939Z,19.53
2019-02-05T06:14:31.469Z,20.17
2019-02-05T06:17:02.097Z,20.43
2019-02-05T06:19:32.587Z,18.93
2019-02-05T06:22:03.159Z,21.07
2019-02-05T06:24:33.739Z,19.40
2019-02-05T06:27:19.589Z,20.57
2019-02-05T06:29:50.147Z,21.23
2019-02-05T06:32:20.120Z,18.47
2019-02-05T06:34:50.609Z,21.50
2019-02-05T06:37:20.980Z,20.37
2019-02-05T06:39:56.926Z,21.17
2019-02-05T06:42:27.269Z,20.73
2019-02-05T06:44:57.567Z,22.70
2019-02-05T06:47:46.957Z,22.67
2019-02-05T06:50:17.392Z,22.70
2019-02-05T06:52:47.702Z,22.43
2019-02-05T06:55:18.291Z,23.77
2019-02-05T06:57:48.895Z,21.53
2019-02-05T07:00:25.168Z,22.40
2019-02-05T07:02:55.869Z,23.47
2019-02-05T07:05:26.141Z,18.50
2019-02-05T07:07:56.735Z,20.87
2019-02-05T07:10:27.454Z,22.83
2019-02-05T07:12:59.291Z,20.97
2019-02-05T07:15:29.918Z,22.43
2019-02-05T07:18:00.537Z,20.67
2019-02-05T07:20:30.528Z,18.90
2019-02-05T07:23:00.982Z,22.00
2019-02-05T07:25:31.166Z,22.80
2019-02-05T07:28:01.861Z,21.80
2019-02-05T07:30:32.535Z,22.13
2019-02-05T07:33:03.019Z,19.27
2019-02-05T07:35:33.716Z,21.50
2019-02-05T07:38:07.496Z,20.00
2019-02-05T07:40:38.157Z,20.57
2019-02-05T07:43:08.442Z,21.93
2019-02-05T07:45:39.055Z,17.93
2019-02-05T07:48:09.440Z,19.07
2019-02-05T07:50:39.729Z,23.07
2019-02-05T07:53:10.176Z,21.70
2019-02-05T07:55:40.541Z,21.50
2019-02-05T07:58:11.260Z,20.90
2019-02-05T08:00:41.542Z,21.23
2019-02-05T08:03:12.211Z,22.33
2019-02-05T08:05:42.647Z,19.77
2019-02-05T08:08:13.405Z,20.93
2019-02-05T08:10:43.798Z,21.50
2019-02-05T08:13:14.403Z,21.13
2019-02-05T08:15:45.073Z,19.23
2019-02-05T08:18:15.759Z,21.13
2019-02-05T08:20:46.269Z,20.77
2019-02-05T08:23:16.641Z,22.00
2019-02-05T08:25:47.382Z,21.90
2019-02-05T08:28:17.629Z,21.00
2019-02-05T08:30:49.518Z,18.93
2019-02-05T08:33:20.156Z,23.00
2019-02-05T08:35:50.794Z,21.63
2019-02-05T08:38:21.368Z,22.13
2019-02-05T08:40:51.685Z,20.43
2019-02-05T08:43:22.368Z,22.40
2019-02-05T08:45:56.814Z,22.03
2019-02-05T08:48:25.280Z,21.00
2019-02-05T08:50:55.553Z,21.67
2019-02-05T08:53:25.759Z,21.60
2019-02-05T08:55:56.170Z,18.87
2019-02-05T08:58:31.110Z,20.60
2019-02-05T09:00:59.036Z,18.33
2019-02-05T09:03:29.411Z,19.80
2019-02-05T09:05:59.971Z,19.40
2019-02-05T09:08:30.502Z,19.47
2019-02-05T09:11:19.912Z,17.73
2019-02-05T09:13:51.872Z,19.93
2019-02-05T09:16:22.521Z,18.73
2019-02-05T09:18:52.827Z,17.87
2019-02-05T09:21:23.044Z,20.07
2019-02-05T09:23:53.494Z,20.60
2019-02-05T09:26:24.155Z,20.77
2019-02-05T09:28:54.447Z,19.70
2019-02-05T09:31:25.030Z,20.27
2019-02-05T09:33:55.659Z,21.20
2019-02-05T09:36:26.190Z,15.00
2019-02-05T09:38:56.729Z,18.53
2019-02-05T09:41:27.328Z,20.87
2019-02-05T09:43:57.744Z,18.73
2019-02-05T09:46:28.274Z,19.17
2019-02-05T09:48:58.656Z,20.57
2019-02-05T09:51:28.906Z,20.63
2019-02-05T09:53:59.520Z,21.60
2019-02-05T09:56:30.324Z,21.17
2019-02-05T09:59:00.906Z,20.53
2019-02-05T10:01:31.262Z,22.20
2019-02-05T10:04:01.917Z,19.87
2019-02-05T10:06:32.225Z,18.83
2019-02-05T10:09:02.142Z,21.37
2019-02-05T10:11:32.176Z,20.77
2019-02-05T10:14:02.087Z,20.83
2019-02-05T10:16:32.676Z,21.00
2019-02-05T10:19:03.368Z,20.87
2019-02-05T10:21:34.126Z,21.97
2019-02-05T10:24:05.087Z,22.03
2019-02-05T10:26:35.454Z,22.17
2019-02-05T10:29:05.880Z,20.53
2019-02-05T10:31:35.887Z,19.30
2019-02-05T10:34:06.260Z,20.97
2019-02-05T10:36:36.300Z,20.87
2019-02-05T10:39:09.742Z,19.40
2019-02-05T10:41:40.485Z,20.13
2019-02-05T10:44:11.254Z,21.37
2019-02-05T10:46:41.656Z,21.67
2019-02-05T10:49:12.410Z,21.80
2019-02-05T10:51:42.821Z,21.67
2019-02-05T10:54:13.392Z,21.93
2019-02-05T10:56:43.932Z,21.97
2019-02-05T10:59:14.524Z,22.00
2019-02-05T11:01:44.752Z,21.40
2019-02-05T11:04:15.350Z,21.03
2019-02-05T11:06:45.408Z,20.60
2019-02-05T11:09:15.689Z,19.83
2019-02-05T11:11:46.382Z,21.83
2019-02-05T11:14:17.096Z,21.63
2019-02-05T11:16:47.699Z,22.97
2019-02-05T11:19:18.536Z,22.40
2019-02-05T11:21:48.484Z,23.60
2019-02-05T11:24:18.825Z,21.90
2019-02-05T11:26:49.159Z,21.20
2019-02-05T11:29:19.888Z,21.97
2019-02-05T11:31:49.378Z,21.60
2019-02-05T11:34:19.823Z,20.17
2019-02-05T11:36:50.156Z,19.60
2019-02-05T11:39:20.432Z,23.63
2019-02-05T11:41:50.798Z,21.67
2019-02-05T11:44:21.405Z,21.03
2019-02-05T11:46:52.076Z,21.80
2019-02-05T11:49:22.656Z,19.60
2019-02-05T11:51:53.025Z,21.53
2019-02-05T11:54:23.603Z,21.53
2019-02-05T11:56:53.844Z,21.13
2019-02-05T11:59:24.550Z,20.33
2019-02-05T12:01:55.092Z,21.67
2019-02-05T12:04:25.448Z,18.53
2019-02-05T12:06:56.118Z,21.07
2019-02-05T12:09:26.940Z,20.73
2019-02-05T12:11:57.561Z,20.20
2019-02-05T12:14:27.602Z,20.27
2019-02-05T12:16:58.180Z,21.47
2019-02-05T12:19:28.580Z,20.93
2019-02-05T12:21:59.162Z,20.03
2019-02-05T12:24:29.425Z,20.97
2019-02-05T12:26:59.998Z,20.33
2019-02-05T12:29:29.950Z,20.47
2019-02-05T12:32:00.665Z,20.83
2019-02-05T12:34:31.250Z,20.57
2019-02-05T12:37:01.602Z,20.23
2019-02-05T12:39:32.248Z,20.23
2019-02-05T12:42:02.394Z,19.93
2019-02-05T12:44:32.732Z,21.43
2019-02-05T12:47:02.584Z,22.27
2019-02-05T12:49:32.872Z,19.93
2019-02-05T12:52:03.458Z,22.03
2019-02-05T12:54:34.033Z,20.87
2019-02-05T12:57:05.942Z,23.13
2019-02-05T12:59:36.276Z,22.07
2019-02-05T13:02:06.567Z,19.77
2019-02-05T13:04:37.106Z,21.93
2019-02-05T13:07:08.406Z,23.37
2019-02-05T13:09:38.597Z,22.07
2019-02-05T13:12:08.779Z,22.03
2019-02-05T13:14:38.775Z,20.80
2019-02-05T13:17:08.902Z,19.57
2019-02-05T13:19:39.106Z,21.07
2019-02-05T13:22:09.360Z,21.87
2019-02-05T13:24:39.894Z,22.30
2019-02-05T13:27:10.492Z,21.83
2019-02-05T13:29:40.700Z,24.50
2019-02-05T13:32:11.236Z,24.80
2019-02-05T13:34:41.832Z,23.40
2019-02-05T13:37:12.207Z,25.67
2019-02-05T13:39:42.963Z,24.90
2019-02-05T13:42:12.440Z,24.77
2019-02-05T13:44:43.607Z,25.03
2019-02-05T13:47:13.786Z,22.23
2019-02-05T13:49:43.726Z,22.77
2019-02-05T13:52:14.370Z,23.47
2019-02-05T13:54:44.847Z,22.93
2019-02-05T13:57:15.438Z,23.37
2019-02-05T13:59:45.870Z,22.70
2019-02-05T14:02:16.613Z,22.73
2019-02-05T14:04:47.343Z,22.73
2019-02-05T14:07:36.706Z,23.83
2019-02-05T14:10:10.720Z,23.17
2019-02-05T14:12:41.356Z,21.73
2019-02-05T14:15:12.604Z,25.67
2019-02-05T14:17:42.406Z,25.10
2019-02-05T14:20:13.574Z,23.50
2019-02-05T14:22:44.399Z,24.27
2019-02-05T14:25:14.960Z,26.37
2019-02-05T14:27:44.858Z,24.67
2019-02-05T14:30:35.512Z,25.27
2019-02-05T14:33:06.116Z,25.87
2019-02-05T14:35:36.500Z,25.37
2019-02-05T14:38:08.162Z,26.27
2019-02-05T14:40:38.524Z,25.83
2019-02-05T14:43:09.429Z,26.10
2019-02-05T14:45:40.639Z,25.80
2019-02-05T14:48:11.216Z,26.60
2019-02-05T14:50:42.209Z,24.17
2019-02-05T14:53:13.121Z,25.50
2019-02-05T14:55:43.752Z,25.90
2019-02-05T14:58:15.514Z,25.23
2019-02-05T15:00:46.055Z,25.90
2019-02-05T15:03:17.259Z,27.13
2019-02-05T15:05:48.557Z,26.03
2019-02-05T15:08:20.083Z,25.97
2019-02-05T15:10:50.626Z,26.53
2019-02-05T15:13:20.947Z,26.57
2019-02-05T15:15:51.163Z,25.63
2019-02-05T15:18:23.145Z,25.97
2019-02-05T15:20:53.217Z,25.67
2019-02-05T15:23:23.465Z,27.63
2019-02-05T15:25:54.334Z,25.87
2019-02-05T15:28:24.322Z,26.60
2019-02-05T15:30:54.818Z,28.30
2019-02-05T15:33:42.884Z,27.47
2019-02-05T15:36:19.046Z,27.27
2019-02-05T15:38:48.965Z,27.87
2019-02-05T15:41:18.780Z,25.87
2019-02-05T15:43:48.276Z,27.53
2019-02-05T15:46:19.212Z,27.20
2019-02-05T15:48:50.189Z,28.20
2019-02-05T15:51:20.756Z,26.57
2019-02-05T15:53:51.527Z,26.07
2019-02-05T15:56:21.880Z,27.03
2019-02-05T15:58:52.462Z,24.90
2019-02-05T16:01:22.557Z,26.50
2019-02-05T16:03:53.217Z,26.00
2019-02-05T16:06:23.850Z,25.80
2019-02-05T16:08:54.113Z,26.03
2019-02-05T16:11:23.941Z,25.93
2019-02-05T16:13:54.476Z,26.83
2019-02-05T16:16:25.537Z,25.80
2019-02-05T16:18:55.758Z,26.73
2019-02-05T16:21:26.464Z,26.80
2019-02-05T16:23:58.287Z,27.80
2019-02-05T16:26:28.706Z,25.37
2019-02-05T16:28:58.878Z,24.30
2019-02-05T16:31:29.214Z,26.97
2019-02-05T16:33:59.714Z,27.37
2019-02-05T16:36:30.182Z,24.20
2019-02-05T16:39:19.534Z,25.80
2019-02-05T16:41:49.949Z,25.97
2019-02-05T16:44:20.187Z,25.70
2019-02-05T16:46:50.666Z,24.00
2019-02-05T16:49:22.401Z,24.23
2019-02-05T16:51:52.877Z,24.43
2019-02-05T16:54:23.134Z,25.93
2019-02-05T16:56:53.840Z,24.03
2019-02-05T16:59:24.188Z,24.13
2019-02-05T17:01:57.050Z,24.40
2019-02-05T17:04:27.223Z,24.77
2019-02-05T17:06:57.878Z,24.30
2019-02-05T17:09:28.431Z,24.07
2019-02-05T17:11:58.744Z,24.50
2019-02-05T17:14:28.762Z,21.77
2019-02-05T17:16:59.312Z,24.43
2019-02-05T17:19:31.805Z,23.97
2019-02-05T17:22:01.755Z,23.97
2019-02-05T17:24:31.571Z,23.13
2019-02-05T17:27:02.238Z,25.73
2019-02-05T17:29:31.894Z,25.37
2019-02-05T17:32:02.675Z,24.60
2019-02-05T17:34:32.151Z,25.23
2019-02-05T17:37:02.606Z,24.17
2019-02-05T17:39:33.230Z,26.17
2019-02-05T17:42:03.046Z,25.87
2019-02-05T17:44:33.497Z,25.83
2019-02-05T17:47:04.155Z,22.93
2019-02-05T17:49:34.727Z,24.70
2019-02-05T17:52:05.046Z,22.33
2019-02-05T17:54:35.814Z,24.00
2019-02-05T17:57:06.738Z,24.20
2019-02-05T17:59:37.320Z,24.60
2019-02-05T18:02:07.795Z,24.03
2019-02-05T18:04:38.418Z,26.13
2019-02-05T18:07:09.068Z,24.60
2019-02-05T18:09:39.312Z,25.47
2019-02-05T18:12:09.890Z,26.93
2019-02-05T18:14:58.810Z,24.73
2019-02-05T18:17:29.356Z,27.37
2019-02-05T18:20:18.378Z,26.07
2019-02-05T18:22:48.898Z,24.07
2019-02-05T18:25:19.866Z,25.10
2019-02-05T18:27:50.159Z,22.73
2019-02-05T18:30:26.113Z,25.10
2019-02-05T18:33:04.727Z,27.40
2019-02-05T18:35:28.783Z,25.60
2019-02-05T18:37:59.555Z,26.67
2019-02-05T18:40:30.350Z,25.23
2019-02-05T18:43:00.302Z,24.07
2019-02-05T18:45:30.441Z,26.70
2019-02-05T18:48:01.075Z,26.53
2019-02-05T18:50:32.176Z,26.80
2019-02-05T18:53:02.471Z,26.97
2019-02-05T18:55:34.524Z,26.07
2019-02-05T18:58:09.334Z,25.03
2019-02-05T19:00:40.571Z,25.93
2019-02-05T19:03:15.460Z,24.87
2019-02-05T19:05:43.418Z,26.07
2019-02-05T19:08:16.217Z,26.90
2019-02-05T19:10:46.052Z,25.90
2019-02-05T19:13:16.500Z,27.97
2019-02-05T19:15:47.510Z,27.83
2019-02-05T19:18:18.398Z,27.13
2019-02-05T19:20:49.007Z,27.03
2019-02-05T19:23:19.980Z,28.17
2019-02-05T19:25:59.247Z,28.10
2019-02-05T19:28:34.496Z,22.40
2019-02-05T19:31:11.066Z,25.67
2019-02-05T19:33:42.431Z,28.20
2019-02-05T19:36:12.918Z,27.20
2019-02-05T19:38:43.638Z,27.63
2019-02-05T19:41:14.006Z,28.37
2019-02-05T19:43:45.067Z,29.10
2019-02-05T19:46:33.455Z,27.97
2019-02-05T19:49:21.527Z,27.17
2019-02-05T19:51:44.028Z,26.93
2019-02-05T19:54:15.744Z,24.03
2019-02-05T19:56:47.577Z,25.50
2019-02-05T19:59:18.551Z,27.00
2019-02-05T20:01:49.324Z,22.50
2019-02-05T20:04:20.226Z,24.20
2019-02-05T20:06:51.769Z,26.00
2019-02-05T20:09:22.545Z,26.27
2019-02-05T20:11:53.266Z,29.67
2019-02-05T20:14:24.365Z,31.17
2019-02-05T20:16:55.047Z,25.67
2019-02-05T20:19:26.111Z,29.03
2019-02-05T20:21:56.556Z,27.13
2019-02-05T20:24:26.839Z,29.10
2019-02-05T20:26:57.573Z,33.43
2019-02-05T20:29:27.756Z,38.00
2019-02-05T20:31:58.553Z,38.43
2019-02-05T20:34:29.544Z,64.30
2019-02-05T20:36:59.712Z,56.30
2019-02-05T20:39:30.338Z,54.23
2019-02-05T20:42:01.108Z,53.90
2019-02-05T20:44:31.522Z,52.27
2019-02-05T20:47:01.806Z,47.73
2019-02-05T20:49:32.770Z,40.53
2019-02-05T20:52:21.868Z,41.40
2019-02-05T20:54:52.354Z,39.47
2019-02-05T20:57:22.618Z,38.23
2019-02-05T20:59:53.046Z,38.73
2019-02-05T21:02:22.866Z,33.00
2019-02-05T21:04:53.598Z,38.83
2019-02-05T21:07:23.982Z,35.30
2019-02-05T21:09:54.163Z,36.93
2019-02-05T21:12:24.814Z,35.30
2019-02-05T21:14:55.723Z,37.90
2019-02-05T21:17:26.127Z,38.43
2019-02-05T21:19:56.756Z,32.23
2019-02-05T21:22:26.997Z,38.80
2019-02-05T21:24:57.567Z,30.50
2019-02-05T21:27:28.007Z,28.47
2019-02-05T21:29:58.454Z,26.33
2019-02-05T21:32:28.842Z,28.23
2019-02-05T21:34:59.325Z,30.33
2019-02-05T21:37:29.501Z,31.73
2019-02-05T21:40:02.569Z,28.40
2019-02-05T21:42:51.424Z,32.73
2019-02-05T21:45:22.424Z,36.90
2019-02-05T21:47:52.709Z,34.03
2019-02-05T21:50:23.476Z,30.57
2019-02-05T21:52:54.074Z,28.07
2019-02-05T21:55:24.028Z,28.93
2019-02-05T21:57:54.623Z,29.03
2019-02-05T22:00:30.066Z,27.37
2019-02-05T22:03:00.735Z,29.93
2019-02-05T22:05:31.311Z,28.83
2019-02-05T22:08:01.843Z,28.97
2019-02-05T22:10:32.068Z,30.73
2019-02-05T22:13:02.816Z,29.87
2019-02-05T22:15:33.807Z,30.03
2019-02-05T22:18:04.507Z,29.97
2019-02-05T22:20:35.115Z,30.57
2019-02-05T22:23:05.736Z,27.63
2019-02-05T22:25:36.518Z,28.57
2019-02-05T22:28:06.624Z,26.27
2019-02-05T22:30:36.931Z,27.50
2019-02-05T22:33:07.769Z,27.17
2019-02-05T22:35:37.977Z,26.27
2019-02-05T22:38:08.205Z,26.20
2019-02-05T22:40:38.549Z,25.07
2019-02-05T22:43:27.871Z,26.77
2019-02-05T22:45:58.135Z,24.73
2019-02-05T22:48:28.796Z,24.73
2019-02-05T22:50:59.028Z,26.47
2019-02-05T22:53:30.109Z,26.20
2019-02-05T22:56:19.118Z,29.40
2019-02-05T22:58:49.762Z,27.63
2019-02-05T23:01:48.833Z,28.93
2019-02-05T23:04:55.088Z,25.10
2019-02-05T23:07:27.047Z,27.27
2019-02-05T23:10:18.602Z,26.70
2019-02-05T23:12:56.476Z,27.13
2019-02-05T23:15:29.108Z,26.83
2019-02-05T23:17:59.299Z,29.73
2019-02-05T23:20:30.282Z,28.47
2019-02-05T23:23:01.234Z,27.57
2019-02-05T23:25:31.771Z,25.57
2019-02-05T23:28:01.695Z,27.00
2019-02-05T23:30:32.286Z,25.27
2019-02-05T23:33:02.535Z,23.57
2019-02-05T23:35:33.403Z,24.37
2019-02-05T23:38:03.879Z,24.03
2019-02-05T23:40:34.121Z,21.90
2019-02-05T23:43:04.506Z,23.53
2019-02-05T23:45:34.760Z,23.93
2019-02-05T23:48:05.442Z,24.07
2019-02-05T23:50:35.758Z,24.50
2019-02-05T23:53:06.737Z,24.37
2019-02-05T23:55:37.277Z,21.70
2019-02-05T23:58:07.575Z,25.20
